createdAt,value
2023-06-19T00:01:24.151Z,9.40
2023-06-19T00:03:54.475Z,9.40
2023-06-19T00:06:24.913Z,8.63
2023-06-19T00:08:55.283Z,5.85
2023-06-19T00:11:25.584Z,13.53
2023-06-19T00:13:56.249Z,6.57
2023-06-19T00:16:28.583Z,7.00
2023-06-19T00:19:01.959Z,10.23
2023-06-19T00:21:33.043Z,8.43
2023-06-19T00:24:03.455Z,13.43
2023-06-19T00:26:34.067Z,8.37
2023-06-19T00:29:04.414Z,9.23
2023-06-19T00:31:34.948Z,7.77
2023-06-19T00:34:05.309Z,8.13
2023-06-19T00:36:35.844Z,7.65
2023-06-19T00:39:06.858Z,10.30
2023-06-19T00:41:39.787Z,13.02
2023-06-19T00:44:10.218Z,15.40
2023-06-19T00:46:43.801Z,10.10
2023-06-19T00:49:14.376Z,11.55
2023-06-19T00:51:44.742Z,10.13
2023-06-19T00:54:21.071Z,9.13
2023-06-19T00:56:52.340Z,9.27
2023-06-19T01:01:53.639Z,14.35
2023-06-19T01:04:24.068Z,10.38
2023-06-19T01:07:03.726Z,11.57
2023-06-19T01:09:39.967Z,10.05
2023-06-19T01:12:28.681Z,12.70
2023-06-19T01:15:03.515Z,11.75
2023-06-19T01:17:34.378Z,10.60
2023-06-19T01:20:12.432Z,15.75
2023-06-19T01:22:42.805Z,12.68
2023-06-19T01:25:13.287Z,14.38
2023-06-19T01:27:48.617Z,14.37
2023-06-19T01:30:18.972Z,15.88
2023-06-19T01:33:02.750Z,13.65
2023-06-19T01:35:38.663Z,14.48
2023-06-19T01:38:11.095Z,13.80
2023-06-19T01:40:43.255Z,13.25
2023-06-19T01:43:14.756Z,18.25
2023-06-19T01:45:45.376Z,12.88
2023-06-19T01:48:17.478Z,12.37
2023-06-19T01:50:52.545Z,11.75
2023-06-19T01:53:23.060Z,18.88
2023-06-19T01:55:53.544Z,11.00
2023-06-19T01:58:23.841Z,10.47
2023-06-19T02:00:54.137Z,11.93
2023-06-19T02:03:24.583Z,13.27
2023-06-19T02:05:56.560Z,12.43
2023-06-19T02:08:26.865Z,12.73
2023-06-19T02:10:57.196Z,15.80
2023-06-19T02:13:27.473Z,11.35
2023-06-19T02:15:58.379Z,10.02
2023-06-19T02:18:31.634Z,13.48
2023-06-19T02:21:02.002Z,9.90
2023-06-19T02:23:32.582Z,10.40
2023-06-19T02:26:02.875Z,14.13
2023-06-19T02:28:33.181Z,10.82
2023-06-19T02:31:03.613Z,13.10
2023-06-19T02:33:35.832Z,9.65
2023-06-19T02:36:06.832Z,10.40
2023-06-19T02:38:37.030Z,7.88
2023-06-19T02:41:07.527Z,8.10
2023-06-19T02:43:37.937Z,10.83
2023-06-19T02:46:13.266Z,9.02
2023-06-19T02:48:44.835Z,8.07
2023-06-19T02:51:15.334Z,10.37
2023-06-19T02:53:47.284Z,10.32
2023-06-19T02:56:17.772Z,11.52
2023-06-19T02:58:49.990Z,8.43
2023-06-19T03:01:20.768Z,9.25
2023-06-19T03:03:51.461Z,9.93
2023-06-19T03:08:52.385Z,9.20
2023-06-19T03:11:22.911Z,7.73
2023-06-19T03:13:57.935Z,9.93
2023-06-19T03:16:29.240Z,6.40
2023-06-19T03:18:59.701Z,7.90
2023-06-19T03:21:30.412Z,10.98
2023-06-19T03:24:00.937Z,8.07
2023-06-19T03:26:31.816Z,7.85
2023-06-19T03:29:04.527Z,11.15
2023-06-19T03:31:49.773Z,9.20
2023-06-19T03:34:20.194Z,8.10
2023-06-19T03:36:51.482Z,8.65
2023-06-19T03:39:23.496Z,8.43
2023-06-19T03:41:54.313Z,9.63
2023-06-19T03:44:24.582Z,8.85
2023-06-19T03:46:55.185Z,11.60
2023-06-19T03:49:25.602Z,7.67
2023-06-19T03:51:57.915Z,8.07
2023-06-19T03:54:29.718Z,9.95
2023-06-19T03:57:00.166Z,10.10
2023-06-19T03:59:30.513Z,11.20
2023-06-19T04:02:01.072Z,9.02
2023-06-19T04:04:31.480Z,8.53
2023-06-19T04:07:02.806Z,12.73
2023-06-19T04:09:33.249Z,8.45
2023-06-19T04:12:05.290Z,8.93
2023-06-19T04:14:35.872Z,9.63
2023-06-19T04:17:06.181Z,9.23
2023-06-19T04:19:36.626Z,8.30
2023-06-19T04:22:06.970Z,7.47
2023-06-19T04:24:39.629Z,11.60
2023-06-19T04:27:11.667Z,13.00
2023-06-19T04:29:41.824Z,9.45
2023-06-19T04:32:15.033Z,11.52
2023-06-19T04:34:49.553Z,11.23
2023-06-19T04:37:22.697Z,12.07
2023-06-19T04:39:53.036Z,7.32
2023-06-19T04:42:24.447Z,7.55
2023-06-19T04:44:54.927Z,9.18
2023-06-19T04:47:36.441Z,7.07
2023-06-19T04:50:14.800Z,8.55
2023-06-19T04:52:45.122Z,8.83
2023-06-19T04:55:15.753Z,6.57
2023-06-19T04:57:46.481Z,10.27
2023-06-19T05:00:18.253Z,7.05
2023-06-19T05:02:50.610Z,10.45
2023-06-19T05:05:24.400Z,7.03
2023-06-19T05:07:55.048Z,8.10
2023-06-19T05:10:25.862Z,10.27
2023-06-19T05:12:56.553Z,8.68
2023-06-19T05:15:27.383Z,8.47
2023-06-19T05:17:58.059Z,7.03
2023-06-19T05:20:29.113Z,11.82
2023-06-19T05:22:59.446Z,5.95
2023-06-19T05:25:32.080Z,5.88
2023-06-19T05:28:04.934Z,8.13
2023-06-19T05:30:36.097Z,6.65
2023-06-19T05:33:06.518Z,6.87
2023-06-19T05:35:36.743Z,7.75
2023-06-19T05:38:06.922Z,10.82
2023-06-19T05:40:37.162Z,8.50
2023-06-19T05:43:07.533Z,7.17
2023-06-19T05:45:38.204Z,9.98
2023-06-19T05:48:08.708Z,9.93
2023-06-19T05:50:39.175Z,8.37
2023-06-19T05:53:09.611Z,11.83
2023-06-19T05:55:39.923Z,9.55
2023-06-19T05:58:10.422Z,9.75
2023-06-19T06:00:40.672Z,8.20
2023-06-19T06:03:10.924Z,8.15
2023-06-19T06:05:41.428Z,6.78
2023-06-19T06:08:11.717Z,9.63
2023-06-19T06:10:42.041Z,8.15
2023-06-19T06:13:12.550Z,7.10
2023-06-19T06:15:43.225Z,6.47
2023-06-19T06:18:13.800Z,8.73
2023-06-19T06:20:44.260Z,8.15
2023-06-19T06:23:14.789Z,7.97
2023-06-19T06:25:45.163Z,7.53
2023-06-19T06:28:15.972Z,7.18
2023-06-19T06:30:46.544Z,6.70
2023-06-19T06:33:17.053Z,7.15
2023-06-19T06:35:47.976Z,8.00
2023-06-19T06:38:18.652Z,12.32
2023-06-19T06:40:49.587Z,7.53
2023-06-19T06:43:20.138Z,9.43
2023-06-19T06:45:50.737Z,8.98
2023-06-19T06:48:21.338Z,9.35
2023-06-19T06:50:51.670Z,8.03
2023-06-19T06:53:22.101Z,8.00
2023-06-19T06:55:52.391Z,8.40
2023-06-19T06:58:22.711Z,5.90
2023-06-19T07:00:54.543Z,7.50
2023-06-19T07:03:25.144Z,5.78
2023-06-19T07:05:56.081Z,5.60
2023-06-19T07:08:27.057Z,10.10
2023-06-19T07:10:57.428Z,7.88
2023-06-19T07:13:28.747Z,8.30
2023-06-19T07:18:29.020Z,7.30
2023-06-19T07:21:00.409Z,6.03
2023-06-19T07:23:31.198Z,5.82
2023-06-19T07:26:01.587Z,8.35
2023-06-19T07:28:31.974Z,8.48
2023-06-19T07:31:02.304Z,6.00
2023-06-19T07:33:33.314Z,8.77
2023-06-19T07:36:06.082Z,8.35
2023-06-19T07:38:36.653Z,6.43
2023-06-19T07:41:06.893Z,4.80
2023-06-19T07:43:37.345Z,6.20
2023-06-19T07:46:08.468Z,5.93
2023-06-19T07:48:39.104Z,5.88
2023-06-19T07:51:09.529Z,8.50
2023-06-19T07:53:39.874Z,5.20
2023-06-19T07:56:11.932Z,4.70
2023-06-19T07:58:42.440Z,7.75
2023-06-19T08:01:13.787Z,5.30
2023-06-19T08:06:14.103Z,5.90
2023-06-19T08:08:44.565Z,5.35
2023-06-19T08:11:14.832Z,5.30
2023-06-19T08:13:45.074Z,5.57
2023-06-19T08:16:15.410Z,6.75
2023-06-19T08:18:46.052Z,4.55
2023-06-19T08:21:17.172Z,6.13
2023-06-19T08:23:47.529Z,4.63
2023-06-19T08:26:17.967Z,6.18
2023-06-19T08:28:48.293Z,7.57
2023-06-19T08:31:18.917Z,3.78
2023-06-19T08:33:54.808Z,6.50
2023-06-19T08:36:27.111Z,5.82
2023-06-19T08:38:57.433Z,6.30
2023-06-19T08:41:27.912Z,6.72
2023-06-19T08:43:58.792Z,5.50
2023-06-19T08:46:29.206Z,5.97
2023-06-19T08:49:00.456Z,6.77
2023-06-19T08:54:10.432Z,5.50
2023-06-19T08:56:43.569Z,5.80
2023-06-19T08:59:15.329Z,4.65
2023-06-19T09:01:58.279Z,4.90
2023-06-19T09:04:34.640Z,3.95
2023-06-19T09:07:07.402Z,4.13
2023-06-19T09:09:52.418Z,5.28
2023-06-19T09:12:22.570Z,6.45
2023-06-19T09:15:00.657Z,7.70
2023-06-19T09:17:31.055Z,4.22
2023-06-19T09:20:09.307Z,3.50
2023-06-19T09:22:39.954Z,3.97
2023-06-19T09:25:13.562Z,4.05
2023-06-19T09:27:43.876Z,5.93
2023-06-19T09:30:19.895Z,5.20
2023-06-19T09:32:51.638Z,3.42
2023-06-19T09:35:22.174Z,6.72
2023-06-19T09:37:55.844Z,4.70
2023-06-19T09:40:27.164Z,4.13
2023-06-19T09:43:00.268Z,4.63
2023-06-19T09:45:35.947Z,6.00
2023-06-19T09:48:07.616Z,5.38
2023-06-19T09:50:57.988Z,4.25
2023-06-19T09:53:29.086Z,4.93
2023-06-19T09:55:59.736Z,5.18
2023-06-19T09:58:31.726Z,6.13
2023-06-19T10:01:03.094Z,6.28
2023-06-19T10:03:37.808Z,5.40
2023-06-19T10:06:08.656Z,7.60
2023-06-19T10:08:47.421Z,6.20
2023-06-19T10:11:18.222Z,6.82
2023-06-19T10:13:49.057Z,8.10
2023-06-19T10:16:29.242Z,8.13
2023-06-19T10:19:01.370Z,4.78
2023-06-19T10:21:31.782Z,5.82
2023-06-19T10:24:05.768Z,4.67
2023-06-19T10:26:41.404Z,8.05
2023-06-19T10:29:19.910Z,6.30
2023-06-19T10:31:50.848Z,8.35
2023-06-19T10:34:21.688Z,6.60
2023-06-19T10:36:52.065Z,6.13
2023-06-19T10:39:22.504Z,7.82
2023-06-19T10:41:53.554Z,7.13
2023-06-19T10:44:30.235Z,10.10
2023-06-19T10:47:00.612Z,7.60
2023-06-19T10:49:31.789Z,7.22
2023-06-19T10:52:03.729Z,8.55
2023-06-19T10:54:34.743Z,9.80
2023-06-19T10:57:08.527Z,6.05
2023-06-19T10:59:39.051Z,8.95
2023-06-19T11:02:09.851Z,7.93
2023-06-19T11:04:43.117Z,10.17
2023-06-19T11:07:13.851Z,5.72
2023-06-19T11:09:45.028Z,13.03
2023-06-19T11:12:15.967Z,10.57
2023-06-19T11:14:46.888Z,10.07
2023-06-19T11:17:17.803Z,10.13
2023-06-19T11:19:48.487Z,8.68
2023-06-19T11:22:19.208Z,6.33
2023-06-19T11:24:49.989Z,8.27
2023-06-19T11:27:28.015Z,6.53
2023-06-19T11:30:04.579Z,8.10
2023-06-19T11:32:37.716Z,8.68
2023-06-19T11:35:16.428Z,6.85
2023-06-19T11:37:47.622Z,9.18
2023-06-19T11:40:23.077Z,9.93
2023-06-19T11:42:57.574Z,9.48
2023-06-19T11:45:27.977Z,7.45
2023-06-19T11:47:58.517Z,6.70
2023-06-19T11:53:04.515Z,9.32
2023-06-19T11:55:35.392Z,7.95
2023-06-19T11:58:06.764Z,7.05
2023-06-19T12:00:37.751Z,7.65
2023-06-19T12:03:08.631Z,6.95
2023-06-19T12:05:39.768Z,9.13
2023-06-19T12:08:10.538Z,6.07
2023-06-19T12:10:41.143Z,8.63
2023-06-19T12:13:11.484Z,9.70
2023-06-19T12:15:42.000Z,8.47
2023-06-19T12:18:15.675Z,8.85
2023-06-19T12:20:46.287Z,9.50
2023-06-19T12:23:16.748Z,8.73
2023-06-19T12:25:47.546Z,9.97
2023-06-19T12:28:21.929Z,6.67
2023-06-19T12:30:56.563Z,8.85
2023-06-19T12:33:28.276Z,7.00
2023-06-19T12:36:00.013Z,7.65
2023-06-19T12:38:30.448Z,10.27
2023-06-19T12:41:01.011Z,3.90
2023-06-19T12:43:31.285Z,7.03
2023-06-19T12:46:03.019Z,8.47
2023-06-19T12:48:33.484Z,10.60
2023-06-19T12:51:03.858Z,7.50
2023-06-19T12:53:34.776Z,5.93
2023-06-19T12:56:09.734Z,11.50
2023-06-19T12:58:43.002Z,8.13
2023-06-19T13:01:13.492Z,7.50
2023-06-19T13:47:05.098Z,11.00
2023-06-19T13:49:37.293Z,7.30
2023-06-19T13:52:09.078Z,8.45
2023-06-19T13:54:40.919Z,6.53
2023-06-19T13:57:11.448Z,9.23
2023-06-19T13:59:41.900Z,7.13
2023-06-19T14:02:13.977Z,9.60
2023-06-19T14:04:44.537Z,6.47
2023-06-19T14:07:14.894Z,8.13
2023-06-19T14:09:45.686Z,6.05
2023-06-19T14:12:16.062Z,9.47
2023-06-19T14:14:46.579Z,6.20
2023-06-19T14:17:17.616Z,9.27
2023-06-19T14:19:49.214Z,10.02
2023-06-19T14:22:21.541Z,6.85
2023-06-19T14:24:52.689Z,7.27
2023-06-19T14:27:24.004Z,5.88
2023-06-19T14:32:25.405Z,6.53
2023-06-19T14:34:55.899Z,6.25
2023-06-19T14:37:26.416Z,5.90
2023-06-19T14:39:58.441Z,7.40
2023-06-19T14:42:28.948Z,4.97
2023-06-19T14:44:59.389Z,3.67
2023-06-19T14:47:29.832Z,5.72
2023-06-19T14:50:00.387Z,8.37
2023-06-19T14:52:30.766Z,6.20
2023-06-19T14:55:01.231Z,6.20
2023-06-19T14:57:31.672Z,7.80
2023-06-19T15:00:02.114Z,5.97
2023-06-19T15:02:32.344Z,6.13
2023-06-19T15:05:09.837Z,5.93
2023-06-19T15:07:40.368Z,5.18
2023-06-19T15:10:11.682Z,5.93
2023-06-19T15:12:42.046Z,5.15
2023-06-19T15:15:12.855Z,6.35
2023-06-19T15:17:43.427Z,8.57
2023-06-19T15:20:14.278Z,14.23
2023-06-19T15:22:45.095Z,14.05
2023-06-19T15:25:16.074Z,10.93
2023-06-19T15:30:18.369Z,8.68
2023-06-19T15:32:48.624Z,9.57
2023-06-19T15:35:19.193Z,5.63
2023-06-19T15:37:49.730Z,7.90
2023-06-19T15:40:20.106Z,8.18
2023-06-19T15:42:50.644Z,7.40
2023-06-19T15:45:20.948Z,8.18
2023-06-19T15:47:51.637Z,6.73
2023-06-19T15:50:22.202Z,8.60
2023-06-19T15:52:52.835Z,6.05
2023-06-19T15:55:24.252Z,7.17
2023-06-19T15:57:54.786Z,6.00
2023-06-19T16:00:25.626Z,7.35
2023-06-19T16:02:56.296Z,8.35
2023-06-19T16:05:26.944Z,8.03
2023-06-19T16:07:57.911Z,7.87
2023-06-19T16:10:28.290Z,3.67
2023-06-19T16:12:58.475Z,6.72
2023-06-19T16:15:31.487Z,6.43
2023-06-19T16:18:02.680Z,6.15
2023-06-19T16:20:33.289Z,5.30
2023-06-19T16:23:03.645Z,10.63
2023-06-19T16:25:34.227Z,9.00
2023-06-19T16:28:05.145Z,6.03
2023-06-19T16:30:35.501Z,5.72
2023-06-19T16:33:05.877Z,5.35
2023-06-19T16:35:36.322Z,6.37
2023-06-19T16:38:06.680Z,5.82
2023-06-19T16:40:37.152Z,5.63
2023-06-19T16:43:07.836Z,7.17
2023-06-19T16:45:38.177Z,7.40
2023-06-19T16:48:08.716Z,7.15
2023-06-19T16:50:40.342Z,4.40
2023-06-19T16:53:10.830Z,6.35
2023-06-19T16:55:41.559Z,7.13
2023-06-19T16:58:11.901Z,6.15
2023-06-19T17:00:42.264Z,7.57
2023-06-19T17:03:13.035Z,7.73
2023-06-19T17:05:43.687Z,6.28
2023-06-19T17:08:14.155Z,5.17
2023-06-19T17:10:44.737Z,7.45
2023-06-19T17:13:15.194Z,8.00
2023-06-19T17:15:45.582Z,9.43
2023-06-19T17:18:16.070Z,6.00
2023-06-19T17:20:46.573Z,7.00
2023-06-19T17:23:17.465Z,6.63
2023-06-19T17:25:49.119Z,5.85
2023-06-19T17:28:19.429Z,9.32
2023-06-19T17:30:50.932Z,5.53
2023-06-19T17:33:21.542Z,7.25
2023-06-19T17:35:51.971Z,6.57
2023-06-19T17:38:22.443Z,8.18
2023-06-19T17:40:52.815Z,5.50
2023-06-19T17:43:23.259Z,8.93
2023-06-19T17:45:53.636Z,7.45
2023-06-19T17:48:23.948Z,6.63
2023-06-19T17:50:54.308Z,8.95
2023-06-19T17:53:24.431Z,5.80
2023-06-19T17:55:54.738Z,7.00
2023-06-19T17:58:27.164Z,7.80
2023-06-19T18:00:57.441Z,5.55
2023-06-19T18:03:27.991Z,8.63
2023-06-19T18:05:58.481Z,5.70
2023-06-19T18:08:28.987Z,9.50
2023-06-19T18:11:01.279Z,5.30
2023-06-19T18:13:31.594Z,5.68
2023-06-19T18:16:11.833Z,9.65
2023-06-19T18:18:43.258Z,5.70
2023-06-19T18:21:13.483Z,3.63
2023-06-19T18:23:43.698Z,6.05
2023-06-19T18:26:14.245Z,6.23
2023-06-19T18:28:44.539Z,6.47
2023-06-19T18:31:14.818Z,7.72
2023-06-19T18:33:45.174Z,7.22
2023-06-19T18:36:15.577Z,5.63
2023-06-19T18:38:45.986Z,4.53
2023-06-19T18:41:16.582Z,7.03
2023-06-19T18:43:46.899Z,7.73
2023-06-19T18:46:17.415Z,8.20
2023-06-19T18:48:48.954Z,6.80
2023-06-19T18:51:19.547Z,8.32
2023-06-19T18:53:50.030Z,6.63
2023-06-19T18:56:21.381Z,8.45
2023-06-19T18:58:51.863Z,6.50
2023-06-19T19:01:22.356Z,9.77
2023-06-19T19:03:52.876Z,3.80
2023-06-19T19:06:23.529Z,6.17
2023-06-19T19:08:59.508Z,6.00
2023-06-19T19:11:30.114Z,9.05
2023-06-19T19:14:00.798Z,7.75
2023-06-19T19:16:31.208Z,7.00
2023-06-19T19:19:01.737Z,7.00
2023-06-19T19:21:32.538Z,6.97
2023-06-19T19:24:02.940Z,6.00
2023-06-19T19:26:36.053Z,7.83
2023-06-19T19:29:06.918Z,8.18
2023-06-19T19:31:37.525Z,6.60
2023-06-19T19:34:08.051Z,7.40
2023-06-19T19:36:38.845Z,6.67
2023-06-19T19:39:09.220Z,10.57
2023-06-19T19:41:39.423Z,8.52
2023-06-19T19:44:09.769Z,9.25
2023-06-19T19:46:41.837Z,5.82
2023-06-19T19:49:12.467Z,5.97
2023-06-19T19:51:42.997Z,5.97
2023-06-19T19:54:13.306Z,8.53
2023-06-19T19:56:43.648Z,7.50
2023-06-19T19:59:14.113Z,7.00
2023-06-19T20:01:44.542Z,8.10
2023-06-19T20:04:17.505Z,7.85
2023-06-19T20:06:48.622Z,6.55
2023-06-19T20:09:18.961Z,9.27
2023-06-19T20:11:50.655Z,9.35
2023-06-19T20:14:22.281Z,8.30
2023-06-19T20:16:52.667Z,5.75
2023-06-19T20:19:23.064Z,7.15
2023-06-19T20:21:53.636Z,8.63
2023-06-19T20:24:23.946Z,8.23
2023-06-19T20:26:54.324Z,7.43
2023-06-19T20:29:24.691Z,11.70
2023-06-19T20:31:55.035Z,8.55
2023-06-19T20:34:25.599Z,4.60
2023-06-19T20:36:56.009Z,10.30
2023-06-19T20:39:26.372Z,6.05
2023-06-19T20:41:57.011Z,8.32
2023-06-19T20:44:28.337Z,8.37
2023-06-19T20:49:31.899Z,4.85
2023-06-19T20:52:02.364Z,9.53
2023-06-19T20:54:32.712Z,8.00
2023-06-19T20:57:03.079Z,6.72
2023-06-19T20:59:33.453Z,9.93
2023-06-19T21:02:03.774Z,9.13
2023-06-19T21:04:35.492Z,7.97
2023-06-19T21:07:05.868Z,10.02
2023-06-19T21:09:36.291Z,10.67
2023-06-19T21:12:06.660Z,9.38
2023-06-19T21:14:37.535Z,7.43
2023-06-19T21:17:08.355Z,9.02
2023-06-19T21:19:38.703Z,11.38
2023-06-19T21:22:09.199Z,9.35
2023-06-19T21:24:40.971Z,8.50
2023-06-19T21:27:11.242Z,10.18
2023-06-19T21:29:41.733Z,8.30
2023-06-19T21:32:12.464Z,10.27
2023-06-19T21:34:43.100Z,12.20
2023-06-19T21:37:13.481Z,11.27
2023-06-19T21:39:44.073Z,11.57
2023-06-19T21:42:14.444Z,10.13
2023-06-19T21:44:46.602Z,14.20
2023-06-19T21:47:16.887Z,10.48
2023-06-19T21:49:47.698Z,10.70
2023-06-19T21:52:18.126Z,14.77
2023-06-19T21:54:48.622Z,10.30
2023-06-19T21:57:19.040Z,10.50
2023-06-19T21:59:50.018Z,13.93
2023-06-19T22:02:20.954Z,9.40
2023-06-19T22:04:51.427Z,8.85
2023-06-19T22:07:21.932Z,10.90
2023-06-19T22:09:52.408Z,16.10
2023-06-19T22:12:22.953Z,15.40
2023-06-19T22:14:55.066Z,37.73
2023-06-19T22:17:25.433Z,33.63
2023-06-19T22:19:55.904Z,34.80
2023-06-19T22:22:26.354Z,30.92
2023-06-19T22:24:56.834Z,31.43
2023-06-19T22:27:27.229Z,29.77
2023-06-19T22:29:57.663Z,29.20
2023-06-19T22:32:27.922Z,24.98
2023-06-19T22:34:58.771Z,29.38
2023-06-19T22:37:29.444Z,22.15
2023-06-19T22:39:59.841Z,22.90
2023-06-19T22:42:31.333Z,22.80
2023-06-19T22:45:02.516Z,19.75
2023-06-19T22:49:39.963Z,19.38
2023-06-19T22:52:11.178Z,24.25
2023-06-19T22:54:41.518Z,16.95
2023-06-19T22:57:11.827Z,18.48
2023-06-19T22:59:43.249Z,19.70
2023-06-19T23:04:43.624Z,18.83
2023-06-19T23:07:14.046Z,22.07
2023-06-19T23:09:44.165Z,15.48
2023-06-19T23:12:14.530Z,18.67
2023-06-19T23:14:44.710Z,17.90
2023-06-19T23:17:14.928Z,15.85
2023-06-19T23:19:46.121Z,17.88
2023-06-19T23:22:16.435Z,18.08
2023-06-19T23:24:47.021Z,18.67
2023-06-19T23:27:19.389Z,12.15
2023-06-19T23:29:49.994Z,18.90
2023-06-19T23:32:20.355Z,14.50
2023-06-19T23:34:52.413Z,11.87
2023-06-19T23:37:22.805Z,13.23
2023-06-19T23:39:53.301Z,10.67
2023-06-19T23:42:24.820Z,12.18
2023-06-19T23:44:55.330Z,12.07
2023-06-19T23:47:25.693Z,11.88
2023-06-19T23:49:55.986Z,12.40
2023-06-19T23:52:38.082Z,13.85
2023-06-19T23:55:12.865Z,11.88
2023-06-19T23:57:43.956Z,9.73
